Time;durP1;ratioP1;P1;durP2;ratioP2;P2;SDS_P1;SDS_P2;PMS_P1;PMS_P2;Temp;Humidity;BMP_temperature;BMP_pressure;BME280_temperature;BME280_humidity;BME280_pressure;Samples;Min_cycle;Max_cycle;Signal;HPM_P1;HPM_P2
2021/06/27 00:02:27;;;;;;;0.00;0.00;;;;;;;;;;5016358;28;20021;-76
2021/06/27 00:04:52;;;;;;;0.00;0.00;;;;;;;;;;4998030;28;20261;-77
2021/06/27 00:07:17;;;;;;;0.00;0.00;;;;;;;;;;4982686;28;20088;-77
2021/06/27 00:09:42;;;;;;;0.00;0.00;;;;;;;;;;4998460;28;20257;-77
2021/06/27 00:12:08;;;;;;;0.00;0.00;;;;;;;;;;4999799;28;20292;-77
2021/06/27 00:14:33;;;;;;;0.00;0.00;;;;;;;;;;4998573;28;20565;-77
2021/06/27 00:16:59;;;;;;;0.00;0.00;;;;;;;;;;4999200;28;20010;-78
2021/06/27 00:19:24;;;;;;;0.00;0.00;;;;;;;;;;4998491;28;20093;-79
2021/06/27 00:21:49;;;;;;;0.00;0.00;;;;;;;;;;4983823;28;20895;-78
2021/06/27 00:24:14;;;;;;;0.00;0.00;;;;;;;;;;4999341;28;20280;-77
2021/06/27 00:26:40;;;;;;;0.00;0.00;;;;;;;;;;5000622;28;20061;-77
2021/06/27 00:29:05;;;;;;;0.00;0.00;;;;;;;;;;5014888;28;20292;-76
2021/06/27 00:31:30;;;;;;;0.00;0.00;;;;;;;;;;5000711;28;20285;-76
2021/06/27 00:33:55;;;;;;;0.00;0.00;;;;;;;;;;4981482;28;20293;-76
2021/06/27 00:36:20;;;;;;;0.00;0.00;;;;;;;;;;4996907;28;20745;-76
2021/06/27 00:38:46;;;;;;;0.00;0.00;;;;;;;;;;4999235;28;20022;-76
2021/06/27 00:41:11;;;;;;;0.00;0.00;;;;;;;;;;4997706;28;20080;-78
2021/06/27 00:43:36;;;;;;;0.00;0.00;;;;;;;;;;4983018;28;20036;-77
2021/06/27 00:46:01;;;;;;;0.00;0.00;;;;;;;;;;4998445;28;20385;-77
2021/06/27 00:48:27;;;;;;;0.00;0.00;;;;;;;;;;4995582;28;20273;-77
2021/06/27 00:50:53;;;;;;;0.00;0.00;;;;;;;;;;4997817;28;20115;-79
2021/06/27 00:53:18;;;;;;;0.00;0.00;;;;;;;;;;4997680;28;20018;-77
2021/06/27 00:55:43;;;;;;;0.00;0.00;;;;;;;;;;4994849;28;20045;-77
2021/06/27 00:58:09;;;;;;;0.00;0.00;;;;;;;;;;4995426;28;20706;-77
2021/06/27 01:00:35;;;;;;;0.00;0.00;;;;;;;;;;4996864;28;20026;-77
2021/06/27 01:03:01;;;;;;;0.00;0.00;;;;;;;;;;4998571;28;20027;-77
2021/06/27 01:05:33;;;;;;;0.00;0.00;;;;;;;;;;4997641;28;20021;-77
2021/06/27 01:07:58;;;;;;;0.00;0.00;;;;;;;;;;4985381;28;20356;-77
2021/06/27 01:10:24;;;;;;;0.00;0.00;;;;;;;;;;4995288;28;20088;-77
2021/06/27 01:12:49;;;;;;;0.00;0.00;;;;;;;;;;4982696;28;20033;-78
2021/06/27 01:15:14;;;;;;;0.00;0.00;;;;;;;;;;5000194;28;20030;-77
2021/06/27 01:17:40;;;;;;;0.00;0.00;;;;;;;;;;5015215;28;20021;-77
2021/06/27 01:20:13;;;;;;;0.00;0.00;;;;;;;;;;4999170;28;20025;-77
2021/06/27 01:22:39;;;;;;;0.00;0.00;;;;;;;;;;4988251;28;20014;-77
2021/06/27 01:25:04;;;;;;;0.00;0.00;;;;;;;;;;4999000;28;20042;-77
2021/06/27 01:27:30;;;;;;;0.00;0.00;;;;;;;;;;5014002;28;20405;-76
2021/06/27 01:29:55;;;;;;;0.00;0.00;;;;;;;;;;4980970;28;20470;-77
2021/06/27 01:32:20;;;;;;;0.00;0.00;;;;;;;;;;4998127;28;20277;-77
2021/06/27 01:34:45;;;;;;;0.00;0.00;;;;;;;;;;4994974;28;20375;-77
2021/06/27 01:37:10;;;;;;;0.00;0.00;;;;;;;;;;4998321;28;20261;-77
2021/06/27 01:39:36;;;;;;;0.00;0.00;;;;;;;;;;5000586;28;20426;-76
2021/06/27 01:42:01;;;;;;;0.03;0.03;;;;;;;;;;4981542;28;20283;-77
2021/06/27 01:44:26;;;;;;;0.00;0.00;;;;;;;;;;4997104;28;20028;-76
2021/06/27 01:46:54;;;;;;;0.00;0.00;;;;;;;;;;4982761;28;20474;-76
2021/06/27 01:49:19;;;;;;;0.13;0.00;;;;;;;;;;4995830;28;20398;-76
2021/06/27 01:51:44;;;;;;;0.00;0.00;;;;;;;;;;4998954;28;20022;-76
2021/06/27 01:54:10;;;;;;;0.00;0.00;;;;;;;;;;4996407;28;20143;-76
2021/06/27 01:56:35;;;;;;;0.00;0.00;;;;;;;;;;4995493;28;20285;-76
2021/06/27 01:59:03;;;;;;;0.00;0.00;;;;;;;;;;4982010;28;20517;-76
2021/06/27 02:01:32;;;;;;;0.00;0.00;;;;;;;;;;4980621;28;20036;-76
2021/06/27 02:03:58;;;;;;;0.00;0.00;;;;;;;;;;5013819;28;20029;-76
2021/06/27 02:06:23;;;;;;;0.00;0.00;;;;;;;;;;4996360;28;20060;-76
2021/06/27 02:08:49;;;;;;;0.00;0.00;;;;;;;;;;4996283;28;20387;-76
2021/06/27 02:11:14;;;;;;;0.00;0.00;;;;;;;;;;4980958;28;20029;-76
2021/06/27 02:13:40;;;;;;;0.00;0.00;;;;;;;;;;4979903;28;20018;-76
2021/06/27 02:16:05;;;;;;;0.00;0.00;;;;;;;;;;4997355;28;20093;-75
2021/06/27 02:18:40;;;;;;;0.00;0.00;;;;;;;;;;4995926;28;20364;-77
2021/06/27 02:21:08;;;;;;;0.00;0.00;;;;;;;;;;4995623;28;20022;-76
2021/06/27 02:23:33;;;;;;;0.00;0.00;;;;;;;;;;4998278;28;20045;-75
2021/06/27 02:25:58;;;;;;;0.00;0.00;;;;;;;;;;5014642;28;20022;-75
2021/06/27 02:28:23;;;;;;;0.00;0.00;;;;;;;;;;4980993;28;20030;-75
2021/06/27 02:30:49;;;;;;;0.00;0.00;;;;;;;;;;4981808;28;20057;-75
2021/06/27 02:33:14;;;;;;;0.00;0.00;;;;;;;;;;4980165;28;20060;-75
2021/06/27 02:35:39;;;;;;;0.00;0.00;;;;;;;;;;4997376;28;20017;-76
2021/06/27 02:38:05;;;;;;;0.00;0.00;;;;;;;;;;4997421;28;20033;-76
2021/06/27 02:40:30;;;;;;;0.00;0.00;;;;;;;;;;4980494;28;20018;-75
2021/06/27 02:42:55;;;;;;;0.00;0.00;;;;;;;;;;4981271;28;20029;-75
2021/06/27 02:45:21;;;;;;;0.00;0.00;;;;;;;;;;4980398;28;20280;-75
2021/06/27 02:47:46;;;;;;;0.00;0.00;;;;;;;;;;4981690;28;20176;-75
2021/06/27 02:50:12;;;;;;;0.00;0.00;;;;;;;;;;4997539;28;20025;-76
2021/06/27 02:52:37;;;;;;;0.00;0.00;;;;;;;;;;4996818;28;20422;-75
2021/06/27 02:55:02;;;;;;;0.00;0.00;;;;;;;;;;4984245;28;20018;-75
2021/06/27 02:57:28;;;;;;;0.00;0.00;;;;;;;;;;5000340;28;20470;-76
2021/06/27 02:59:53;;;;;;;0.00;0.00;;;;;;;;;;4985394;28;20006;-76
2021/06/27 03:02:18;;;;;;;0.00;0.00;;;;;;;;;;4989818;28;20295;-76
2021/06/27 03:04:43;;;;;;;0.00;0.00;;;;;;;;;;5004717;28;20299;-76
2021/06/27 03:07:09;;;;;;;0.00;0.00;;;;;;;;;;4989741;28;20268;-76
2021/06/27 03:09:34;;;;;;;0.00;0.00;;;;;;;;;;5004212;28;20022;-76
2021/06/27 03:11:59;;;;;;;0.00;0.00;;;;;;;;;;4986841;28;20077;-76
2021/06/27 03:14:24;;;;;;;0.00;0.00;;;;;;;;;;5003786;28;20265;-77
2021/06/27 03:16:49;;;;;;;0.00;0.00;;;;;;;;;;5003026;28;20014;-77
2021/06/27 03:19:15;;;;;;;0.00;0.00;;;;;;;;;;4986917;28;20281;-77
2021/06/27 03:21:41;;;;;;;0.00;0.00;;;;;;;;;;5000739;28;20026;-77
2021/06/27 03:24:06;;;;;;;0.00;0.00;;;;;;;;;;5021987;28;20069;-77
2021/06/27 03:26:31;;;;;;;0.00;0.00;;;;;;;;;;5004233;28;20037;-77
2021/06/27 03:28:56;;;;;;;0.00;0.00;;;;;;;;;;5008321;28;20406;-77
2021/06/27 03:31:22;;;;;;;0.00;0.00;;;;;;;;;;5006660;28;20288;-78
2021/06/27 03:33:47;;;;;;;0.00;0.00;;;;;;;;;;5004678;28;20253;-77
2021/06/27 03:36:12;;;;;;;0.00;0.00;;;;;;;;;;5006098;28;20265;-78
2021/06/27 03:41:06;;;;;;;0.00;0.00;;;;;;;;;;5016826;28;20006;-79
2021/06/27 03:43:31;;;;;;;0.00;0.00;;;;;;;;;;5020938;28;20164;-78
2021/06/27 03:45:56;;;;;;;0.00;0.00;;;;;;;;;;5014163;28;20028;-77
2021/06/27 03:48:21;;;;;;;0.00;0.00;;;;;;;;;;5003123;28;20299;-76
2021/06/27 03:50:46;;;;;;;0.00;0.00;;;;;;;;;;5011929;28;20684;-75
2021/06/27 03:53:12;;;;;;;0.00;0.00;;;;;;;;;;5018948;28;20058;-76
2021/06/27 03:55:37;;;;;;;0.00;0.00;;;;;;;;;;5019518;28;20257;-77
2021/06/27 03:58:03;;;;;;;0.00;0.00;;;;;;;;;;5000916;28;20029;-76
2021/06/27 04:00:28;;;;;;;0.00;0.00;;;;;;;;;;5009441;28;20779;-76
2021/06/27 04:02:53;;;;;;;0.00;0.00;;;;;;;;;;5003251;28;20022;-76
2021/06/27 04:05:18;;;;;;;0.00;0.00;;;;;;;;;;5008803;28;20281;-75
2021/06/27 04:07:44;;;;;;;0.00;0.00;;;;;;;;;;5001804;28;20026;-75
2021/06/27 04:10:09;;;;;;;0.00;0.00;;;;;;;;;;5010344;28;20470;-75
2021/06/27 04:12:34;;;;;;;0.00;0.00;;;;;;;;;;5006850;28;20022;-75
2021/06/27 04:14:59;;;;;;;0.00;0.00;;;;;;;;;;5008982;28;20028;-75
2021/06/27 04:17:25;;;;;;;0.00;0.00;;;;;;;;;;4999164;28;20634;-75
2021/06/27 04:19:50;;;;;;;0.00;0.00;;;;;;;;;;4999896;28;20291;-76
2021/06/27 04:22:15;;;;;;;0.00;0.00;;;;;;;;;;5000474;28;20485;-76
2021/06/27 04:24:41;;;;;;;0.00;0.00;;;;;;;;;;5007971;28;20065;-76
2021/06/27 04:27:06;;;;;;;0.00;0.00;;;;;;;;;;4983965;28;20033;-76
2021/06/27 04:29:31;;;;;;;0.00;0.00;;;;;;;;;;4988814;28;20343;-78
2021/06/27 04:31:56;;;;;;;0.00;0.00;;;;;;;;;;5006749;28;20026;-76
2021/06/27 04:34:22;;;;;;;0.00;0.00;;;;;;;;;;5003873;28;20382;-75
2021/06/27 04:36:48;;;;;;;0.00;0.00;;;;;;;;;;5000375;28;20514;-75
2021/06/27 04:39:15;;;;;;;0.00;0.00;;;;;;;;;;4999818;28;20046;-75
2021/06/27 04:41:42;;;;;;;0.00;0.00;;;;;;;;;;5016392;28;20272;-75
2021/06/27 04:44:07;;;;;;;0.00;0.00;;;;;;;;;;5001155;28;20018;-74
2021/06/27 04:46:32;;;;;;;0.00;0.00;;;;;;;;;;4997523;28;20026;-74
2021/06/27 04:48:57;;;;;;;0.00;0.00;;;;;;;;;;4998832;28;20073;-76
2021/06/27 04:51:23;;;;;;;0.00;0.00;;;;;;;;;;4999447;28;20462;-74
2021/06/27 04:53:48;;;;;;;0.00;0.00;;;;;;;;;;4998142;28;20343;-75
2021/06/27 04:56:13;;;;;;;0.00;0.00;;;;;;;;;;4982531;28;20992;-75
2021/06/27 04:58:38;;;;;;;0.00;0.00;;;;;;;;;;4998003;28;20048;-75
2021/06/27 05:01:03;;;;;;;0.00;0.00;;;;;;;;;;4997767;28;20333;-76
2021/06/27 05:03:29;;;;;;;0.00;0.00;;;;;;;;;;4997997;28;20267;-75
2021/06/27 05:05:54;;;;;;;0.00;0.00;;;;;;;;;;5015055;28;20101;-72
2021/06/27 05:08:19;;;;;;;0.00;0.00;;;;;;;;;;4995538;28;20284;-73
2021/06/27 05:10:44;;;;;;;0.00;0.00;;;;;;;;;;4994761;28;20023;-73
2021/06/27 05:13:10;;;;;;;0.05;0.05;;;;;;;;;;4995777;28;20022;-73
2021/06/27 05:15:35;;;;;;;0.00;0.00;;;;;;;;;;4996121;28;20022;-73
2021/06/27 05:18:00;;;;;;;0.00;0.00;;;;;;;;;;4980161;28;20014;-74
2021/06/27 05:20:25;;;;;;;0.00;0.00;;;;;;;;;;5000865;28;20308;-74
2021/06/27 05:22:50;;;;;;;0.00;0.00;;;;;;;;;;4980681;28;20022;-75
2021/06/27 05:25:16;;;;;;;0.00;0.00;;;;;;;;;;4982925;28;20109;-75
2021/06/27 05:27:41;;;;;;;0.00;0.00;;;;;;;;;;5003102;28;20355;-74
2021/06/27 05:30:06;;;;;;;0.00;0.00;;;;;;;;;;4995728;28;20022;-74
2021/06/27 05:32:32;;;;;;;0.00;0.00;;;;;;;;;;4995879;28;20022;-74
2021/06/27 05:34:57;;;;;;;0.00;0.00;;;;;;;;;;4995757;28;20080;-73
2021/06/27 05:37:22;;;;;;;0.00;0.00;;;;;;;;;;5013249;28;20033;-73
2021/06/27 05:39:47;;;;;;;0.00;0.00;;;;;;;;;;5003376;28;20265;-73
2021/06/27 05:42:13;;;;;;;0.00;0.00;;;;;;;;;;4995811;28;20049;-73
2021/06/27 05:44:38;;;;;;;0.00;0.00;;;;;;;;;;4993912;28;20279;-73
2021/06/27 05:47:03;;;;;;;0.00;0.00;;;;;;;;;;4998081;28;20112;-73
2021/06/27 05:49:28;;;;;;;0.00;0.00;;;;;;;;;;5003470;28;20038;-73
2021/06/27 05:51:54;;;;;;;0.00;0.00;;;;;;;;;;5001929;28;20026;-73
2021/06/27 05:54:19;;;;;;;0.00;0.00;;;;;;;;;;4995477;28;20022;-73
2021/06/27 05:56:44;;;;;;;0.00;0.00;;;;;;;;;;5014059;28;20021;-73
2021/06/27 05:59:09;;;;;;;0.00;0.00;;;;;;;;;;4995753;28;20614;-73
2021/06/27 06:01:34;;;;;;;0.00;0.00;;;;;;;;;;4995972;28;20061;-74
2021/06/27 06:04:00;;;;;;;0.00;0.00;;;;;;;;;;4995606;28;20761;-74
2021/06/27 06:06:25;;;;;;;0.00;0.00;;;;;;;;;;5003304;28;20044;-73
2021/06/27 06:08:50;;;;;;;0.00;0.00;;;;;;;;;;4996106;28;20788;-73
2021/06/27 06:11:15;;;;;;;0.00;0.00;;;;;;;;;;5004010;28;20030;-74
2021/06/27 06:13:41;;;;;;;0.00;0.00;;;;;;;;;;4996281;28;20385;-74
2021/06/27 06:16:06;;;;;;;0.00;0.00;;;;;;;;;;5003961;28;20022;-73
2021/06/27 06:18:31;;;;;;;0.00;0.00;;;;;;;;;;5012692;28;20010;-73
2021/06/27 06:20:57;;;;;;;0.00;0.00;;;;;;;;;;5004067;28;20109;-71
2021/06/27 06:23:22;;;;;;;0.00;0.00;;;;;;;;;;4994997;28;20129;-71
2021/06/27 06:25:47;;;;;;;0.00;0.00;;;;;;;;;;4995325;28;20105;-72
2021/06/27 06:28:12;;;;;;;0.00;0.00;;;;;;;;;;5001369;28;20680;-72
2021/06/27 06:30:37;;;;;;;0.00;0.00;;;;;;;;;;4994521;28;20284;-72
2021/06/27 06:33:03;;;;;;;0.00;0.00;;;;;;;;;;4994944;28;20265;-72
2021/06/27 06:35:28;;;;;;;0.00;0.00;;;;;;;;;;4998625;28;20261;-72
2021/06/27 06:37:53;;;;;;;0.00;0.00;;;;;;;;;;5002992;28;20037;-72
2021/06/27 06:40:18;;;;;;;0.00;0.00;;;;;;;;;;5008685;28;20030;-73
2021/06/27 06:42:43;;;;;;;0.00;0.00;;;;;;;;;;5008188;28;20405;-72
2021/06/27 06:45:09;;;;;;;0.00;0.00;;;;;;;;;;5008048;28;20834;-73
2021/06/27 06:47:34;;;;;;;0.00;0.00;;;;;;;;;;4998450;28;20264;-73
2021/06/27 06:49:59;;;;;;;0.00;0.00;;;;;;;;;;4998293;28;20018;-73
2021/06/27 06:52:24;;;;;;;0.00;0.00;;;;;;;;;;4998540;28;20026;-72
2021/06/27 06:54:50;;;;;;;0.00;0.00;;;;;;;;;;5000901;28;20045;-73
2021/06/27 06:57:15;;;;;;;0.00;0.00;;;;;;;;;;5005106;28;20367;-72
2021/06/27 06:59:40;;;;;;;0.00;0.00;;;;;;;;;;4999432;28;20025;-71
2021/06/27 07:02:05;;;;;;;0.00;0.00;;;;;;;;;;4998547;28;20433;-71
2021/06/27 07:04:32;;;;;;;0.00;0.00;;;;;;;;;;5017773;28;20268;-72
2021/06/27 07:06:57;;;;;;;0.00;0.00;;;;;;;;;;4998893;28;20097;-71
2021/06/27 07:09:22;;;;;;;0.00;0.00;;;;;;;;;;5015939;28;20124;-70
2021/06/27 07:11:47;;;;;;;0.00;0.00;;;;;;;;;;4998297;28;20030;-71
2021/06/27 07:14:12;;;;;;;0.00;0.00;;;;;;;;;;4998811;28;20356;-71
2021/06/27 07:16:38;;;;;;;0.00;0.00;;;;;;;;;;4998176;28;20053;-71
2021/06/27 07:19:03;;;;;;;0.00;0.00;;;;;;;;;;4998237;28;20022;-71
2021/06/27 07:21:28;;;;;;;0.00;0.00;;;;;;;;;;4998138;28;20441;-73
2021/06/27 07:23:53;;;;;;;0.00;0.00;;;;;;;;;;4998073;28;20076;-73
2021/06/27 07:26:19;;;;;;;0.00;0.00;;;;;;;;;;5013136;28;20022;-72
2021/06/27 07:28:44;;;;;;;0.00;0.00;;;;;;;;;;4998507;28;20060;-72
2021/06/27 07:31:09;;;;;;;0.00;0.00;;;;;;;;;;4997907;28;20292;-71
2021/06/27 07:33:34;;;;;;;0.00;0.00;;;;;;;;;;4996827;28;20022;-71
2021/06/27 07:36:00;;;;;;;0.00;0.00;;;;;;;;;;5013942;28;20022;-70
2021/06/27 07:38:25;;;;;;;0.00;0.00;;;;;;;;;;5013094;28;20492;-71
2021/06/27 07:40:51;;;;;;;0.00;0.00;;;;;;;;;;5013515;28;20273;-72
2021/06/27 07:43:16;;;;;;;0.00;0.00;;;;;;;;;;5001022;28;20017;-71
2021/06/27 07:45:42;;;;;;;0.00;0.00;;;;;;;;;;5012385;28;20029;-71
2021/06/27 07:48:08;;;;;;;0.00;0.00;;;;;;;;;;5013825;28;20273;-70
2021/06/27 07:50:33;;;;;;;0.00;0.00;;;;;;;;;;4978849;28;20031;-70
2021/06/27 07:52:58;;;;;;;0.00;0.00;;;;;;;;;;4979981;28;20053;-70
2021/06/27 07:55:24;;;;;;;0.00;0.00;;;;;;;;;;4995302;28;20357;-70
2021/06/27 07:57:49;;;;;;;0.00;0.00;;;;;;;;;;4996259;28;20271;-71
2021/06/27 08:00:14;;;;;;;0.00;0.00;;;;;;;;;;4979803;28;20109;-70
2021/06/27 08:02:40;;;;;;;0.00;0.00;;;;;;;;;;5013139;28;20033;-70
2021/06/27 08:05:05;;;;;;;0.00;0.00;;;;;;;;;;4978414;28;20026;-70
2021/06/27 08:07:30;;;;;;;0.00;0.00;;;;;;;;;;4995474;28;20033;-72
2021/06/27 08:09:56;;;;;;;0.00;0.00;;;;;;;;;;4995706;28;20018;-71
2021/06/27 08:12:21;;;;;;;0.00;0.00;;;;;;;;;;4978907;28;20029;-70
2021/06/27 08:14:46;;;;;;;0.00;0.00;;;;;;;;;;4996571;28;20272;-71
2021/06/27 08:17:11;;;;;;;0.00;0.00;;;;;;;;;;4996915;28;20257;-73
2021/06/27 08:19:37;;;;;;;0.00;0.00;;;;;;;;;;4997695;28;20022;-72
2021/06/27 08:22:02;;;;;;;0.00;0.00;;;;;;;;;;4996985;28;20032;-72
2021/06/27 08:24:27;;;;;;;0.00;0.00;;;;;;;;;;4980716;28;20184;-72
2021/06/27 08:26:52;;;;;;;0.00;0.00;;;;;;;;;;4997437;28;20371;-72
2021/06/27 08:29:18;;;;;;;0.00;0.00;;;;;;;;;;5014268;28;20048;-72
2021/06/27 08:31:43;;;;;;;0.00;0.00;;;;;;;;;;4997215;28;20280;-73
2021/06/27 08:34:08;;;;;;;0.00;0.00;;;;;;;;;;4996903;28;20093;-73
2021/06/27 08:36:33;;;;;;;0.00;0.00;;;;;;;;;;4996518;28;20014;-73
2021/06/27 08:38:58;;;;;;;0.00;0.00;;;;;;;;;;4996325;28;20026;-72
2021/06/27 08:41:24;;;;;;;0.00;0.00;;;;;;;;;;5008319;28;20624;-73
2021/06/27 08:44:00;;;;;;;;;;;;;;;;;;;;;
2021/06/27 08:46:25;;;;;;;0.00;0.00;;;;;;;;;;4997455;28;20030;-72
2021/06/27 08:48:50;;;;;;;0.00;0.00;;;;;;;;;;5013520;28;20110;-73
2021/06/27 08:51:16;;;;;;;0.00;0.00;;;;;;;;;;4998131;28;20303;-74
2021/06/27 08:53:41;;;;;;;0.00;0.00;;;;;;;;;;5013082;28;20085;-72
2021/06/27 08:56:10;;;;;;;0.00;0.00;;;;;;;;;;4994554;28;20030;-71
2021/06/27 08:58:36;;;;;;;0.00;0.00;;;;;;;;;;5008680;28;20033;-72
2021/06/27 09:01:02;;;;;;;0.00;0.00;;;;;;;;;;5010479;28;20026;-71
2021/06/27 09:03:27;;;;;;;0.00;0.00;;;;;;;;;;4995107;28;20116;-72
2021/06/27 09:05:53;;;;;;;0.00;0.00;;;;;;;;;;5011795;28;20105;-72
2021/06/27 09:08:18;;;;;;;0.00;0.00;;;;;;;;;;4995337;28;20033;-71
2021/06/27 09:10:44;;;;;;;0.00;0.00;;;;;;;;;;5002321;28;20080;-71
2021/06/27 09:13:09;;;;;;;0.00;0.00;;;;;;;;;;5010983;28;20037;-72
2021/06/27 09:15:49;;;;;;;0.00;0.00;;;;;;;;;;4996016;28;20022;-73
2021/06/27 09:18:14;;;;;;;0.00;0.00;;;;;;;;;;5011131;28;20447;-70
2021/06/27 09:20:46;;;;;;;0.00;0.00;;;;;;;;;;4994625;28;20112;-73
2021/06/27 09:23:17;;;;;;;0.00;0.00;;;;;;;;;;5012641;28;20026;-72
2021/06/27 09:25:43;;;;;;;0.00;0.00;;;;;;;;;;5012981;28;20394;-72
2021/06/27 09:28:09;;;;;;;0.00;0.00;;;;;;;;;;5013917;28;20025;-73
2021/06/27 09:30:36;;;;;;;0.00;0.00;;;;;;;;;;5004237;28;20467;-73
2021/06/27 09:33:05;;;;;;;0.00;0.00;;;;;;;;;;4996856;28;20037;-73
2021/06/27 09:35:34;;;;;;;0.00;0.00;;;;;;;;;;4997159;28;20014;-73
2021/06/27 09:38:15;;;;;;;0.00;0.00;;;;;;;;;;4996843;28;20030;-71
2021/06/27 09:40:40;;;;;;;0.00;0.00;;;;;;;;;;4996341;28;20026;-71
2021/06/27 09:43:08;;;;;;;0.00;0.00;;;;;;;;;;5004529;28;20036;-72
2021/06/27 09:45:56;;;;;;;0.00;0.00;;;;;;;;;;5008820;28;20273;-73
2021/06/27 09:48:21;;;;;;;0.00;0.00;;;;;;;;;;5015844;28;20105;-71
2021/06/27 09:50:46;;;;;;;0.00;0.00;;;;;;;;;;5005414;28;20129;-70
2021/06/27 09:53:30;;;;;;;0.00;0.00;;;;;;;;;;4995709;28;20014;-71
2021/06/27 09:55:56;;;;;;;0.00;0.00;;;;;;;;;;5011249;28;20104;-73
2021/06/27 09:58:21;;;;;;;0.00;0.00;;;;;;;;;;4995147;28;20098;-72
2021/06/27 10:00:46;;;;;;;0.00;0.00;;;;;;;;;;4995078;28;20052;-72
2021/06/27 10:03:11;;;;;;;0.00;0.00;;;;;;;;;;5012810;28;20409;-72
2021/06/27 10:05:37;;;;;;;0.00;0.00;;;;;;;;;;5012626;28;20017;-72
2021/06/27 10:08:02;;;;;;;0.00;0.00;;;;;;;;;;4994828;28;20021;-72
2021/06/27 10:10:27;;;;;;;0.00;0.00;;;;;;;;;;4994943;28;20021;-71
2021/06/27 10:12:52;;;;;;;0.00;0.00;;;;;;;;;;4993275;28;20025;-70
2021/06/27 10:15:18;;;;;;;0.00;0.00;;;;;;;;;;4995111;28;20807;-70
2021/06/27 10:17:43;;;;;;;0.00;0.00;;;;;;;;;;5002096;28;20029;-70
2021/06/27 10:20:09;;;;;;;0.00;0.00;;;;;;;;;;4994934;28;20025;-71
2021/06/27 10:22:34;;;;;;;0.00;0.00;;;;;;;;;;4993224;28;20394;-71
2021/06/27 10:25:00;;;;;;;0.00;0.00;;;;;;;;;;4989900;28;20042;-71
2021/06/27 10:27:27;;;;;;;0.00;0.00;;;;;;;;;;4993823;28;20026;-71
2021/06/27 10:29:52;;;;;;;0.00;0.00;;;;;;;;;;4994753;28;20036;-71
2021/06/27 10:32:20;;;;;;;0.00;0.00;;;;;;;;;;4993822;28;20676;-72
2021/06/27 10:34:45;;;;;;;0.00;0.00;;;;;;;;;;4995472;28;20030;-72
2021/06/27 10:37:17;;;;;;;0.00;0.00;;;;;;;;;;5000970;28;20045;-71
2021/06/27 10:39:58;;;;;;;0.00;0.00;;;;;;;;;;4994961;28;20026;-71
2021/06/27 10:42:42;;;;;;;0.00;0.00;;;;;;;;;;5004333;28;20025;-71
2021/06/27 10:45:09;;;;;;;0.00;0.00;;;;;;;;;;4994305;28;20805;-71
2021/06/27 10:47:34;;;;;;;0.00;0.00;;;;;;;;;;5008709;28;20034;-70
2021/06/27 10:50:02;;;;;;;0.00;0.00;;;;;;;;;;4993908;28;20087;-72
2021/06/27 10:52:27;;;;;;;0.00;0.00;;;;;;;;;;5000375;28;20843;-72
2021/06/27 10:55:11;;;;;;;0.00;0.00;;;;;;;;;;5000832;28;20025;-72
2021/06/27 10:57:53;;;;;;;0.00;0.00;;;;;;;;;;4993967;28;20028;-71
2021/06/27 11:00:18;;;;;;;0.00;0.00;;;;;;;;;;5003119;28;20026;-71
2021/06/27 11:02:43;;;;;;;0.00;0.00;;;;;;;;;;4994902;28;20025;-71
2021/06/27 11:05:34;;;;;;;0.00;0.00;;;;;;;;;;4994375;28;20107;-70
2021/06/27 11:07:59;;;;;;;0.00;0.00;;;;;;;;;;4994097;28;20482;-72
2021/06/27 11:10:25;;;;;;;0.00;0.00;;;;;;;;;;4991836;28;20031;-70
2021/06/27 11:13:13;;;;;;;0.00;0.00;;;;;;;;;;5013103;28;20360;-70
2021/06/27 11:15:38;;;;;;;0.00;0.00;;;;;;;;;;5005628;28;20033;-71
2021/06/27 11:18:07;;;;;;;0.00;0.00;;;;;;;;;;4994464;28;20022;-70
2021/06/27 11:20:44;;;;;;;0.00;0.00;;;;;;;;;;4995021;28;20311;-70
2021/06/27 11:23:10;;;;;;;0.00;0.00;;;;;;;;;;5014304;28;20068;-72
2021/06/27 11:25:36;;;;;;;0.00;0.00;;;;;;;;;;5015102;28;20033;-70
2021/06/27 11:28:21;;;;;;;0.00;0.00;;;;;;;;;;4998779;28;20273;-70
2021/06/27 11:30:47;;;;;;;0.00;0.00;;;;;;;;;;5011111;28;20040;-71
2021/06/27 11:33:16;;;;;;;0.00;0.00;;;;;;;;;;4997406;28;20021;-70
2021/06/27 11:35:51;;;;;;;0.00;0.00;;;;;;;;;;5005592;28;20049;-71
2021/06/27 11:38:37;;;;;;;0.00;0.00;;;;;;;;;;5012609;28;20045;-72
2021/06/27 11:41:03;;;;;;;0.00;0.00;;;;;;;;;;5001895;28;20030;-72
2021/06/27 11:43:47;;;;;;;0.00;0.00;;;;;;;;;;5013799;28;20496;-71
2021/06/27 11:46:35;;;;;;;0.00;0.00;;;;;;;;;;5013345;28;20538;-71
2021/06/27 11:49:02;;;;;;;0.00;0.00;;;;;;;;;;5006128;28;20026;-71
2021/06/27 11:51:38;;;;;;;0.00;0.00;;;;;;;;;;4996859;28;20022;-72
2021/06/27 11:54:03;;;;;;;0.00;0.00;;;;;;;;;;4996915;28;20533;-72
2021/06/27 11:56:28;;;;;;;0.00;0.00;;;;;;;;;;5013544;28;20018;-72
2021/06/27 11:59:12;;;;;;;0.00;0.00;;;;;;;;;;5013488;28;20018;-72
2021/06/27 12:01:37;;;;;;;0.00;0.00;;;;;;;;;;4997248;28;20265;-72
2021/06/27 12:04:03;;;;;;;0.00;0.00;;;;;;;;;;4997254;28;20033;-72
2021/06/27 12:06:35;;;;;;;0.00;0.00;;;;;;;;;;4996577;28;20026;-71
2021/06/27 12:09:00;;;;;;;0.00;0.00;;;;;;;;;;4996939;28;20044;-71
2021/06/27 12:11:25;;;;;;;0.00;0.00;;;;;;;;;;5014587;28;20022;-72
2021/06/27 12:13:54;;;;;;;0.00;0.00;;;;;;;;;;5001253;28;20268;-71
2021/06/27 12:16:20;;;;;;;0.00;0.00;;;;;;;;;;5007249;28;20045;-72
2021/06/27 12:18:45;;;;;;;0.00;0.00;;;;;;;;;;4992866;28;20065;-72
2021/06/27 12:21:12;;;;;;;0.00;0.00;;;;;;;;;;5005561;28;20027;-72
2021/06/27 12:23:41;;;;;;;0.00;0.00;;;;;;;;;;4994445;28;20037;-72
2021/06/27 12:26:16;;;;;;;0.00;0.00;;;;;;;;;;4995587;28;20586;-71
2021/06/27 12:28:46;;;;;;;0.00;0.00;;;;;;;;;;4994342;28;20430;-72
2021/06/27 12:31:18;;;;;;;0.00;0.00;;;;;;;;;;4995284;28;20544;-72
2021/06/27 12:33:46;;;;;;;0.00;0.00;;;;;;;;;;5002468;28;20033;-72
2021/06/27 12:36:12;;;;;;;0.00;0.00;;;;;;;;;;4996259;28;20014;-72
2021/06/27 12:38:38;;;;;;;0.00;0.00;;;;;;;;;;4997663;28;20022;-73
2021/06/27 12:41:03;;;;;;;0.00;0.00;;;;;;;;;;4996227;28;20042;-72
2021/06/27 12:43:35;;;;;;;0.00;0.00;;;;;;;;;;4996435;28;20423;-72
2021/06/27 12:46:09;;;;;;;0.00;0.00;;;;;;;;;;4996241;28;20390;-73
2021/06/27 12:48:34;;;;;;;0.00;0.00;;;;;;;;;;5013458;28;20045;-72
2021/06/27 12:50:59;;;;;;;0.00;0.00;;;;;;;;;;5004229;28;20034;-72
2021/06/27 12:53:27;;;;;;;0.00;0.00;;;;;;;;;;4996623;28;20273;-73
2021/06/27 12:55:55;;;;;;;0.00;0.00;;;;;;;;;;5013843;28;20028;-73
2021/06/27 12:58:21;;;;;;;0.00;0.00;;;;;;;;;;4996341;28;20021;-72
2021/06/27 13:00:46;;;;;;;0.00;0.00;;;;;;;;;;4996323;28;20029;-71
2021/06/27 13:03:17;;;;;;;0.00;0.00;;;;;;;;;;4996596;28;20594;-72
2021/06/27 13:05:56;;;;;;;0.00;0.00;;;;;;;;;;4991223;28;20270;-72
2021/06/27 13:08:21;;;;;;;0.00;0.00;;;;;;;;;;5013473;28;20067;-72
2021/06/27 13:10:46;;;;;;;0.00;0.00;;;;;;;;;;4996671;28;20344;-72
2021/06/27 13:13:15;;;;;;;0.00;0.00;;;;;;;;;;5001403;28;20022;-72
2021/06/27 13:15:43;;;;;;;0.00;0.00;;;;;;;;;;4996421;28;20567;-72
2021/06/27 13:18:09;;;;;;;0.00;0.00;;;;;;;;;;4995974;28;20014;-73
2021/06/27 13:20:34;;;;;;;0.00;0.00;;;;;;;;;;5013662;28;20026;-73
2021/06/27 13:23:03;;;;;;;0.00;0.00;;;;;;;;;;4994030;28;20018;-73
2021/06/27 13:25:34;;;;;;;0.00;0.00;;;;;;;;;;4996731;28;20387;-72
2021/06/27 13:28:00;;;;;;;0.00;0.00;;;;;;;;;;4994458;28;20029;-73
2021/06/27 13:30:25;;;;;;;0.00;0.00;;;;;;;;;;4995608;28;20100;-73
2021/06/27 13:33:09;;;;;;;0.00;0.00;;;;;;;;;;4995035;28;20017;-72
2021/06/27 13:35:35;;;;;;;0.00;0.00;;;;;;;;;;5013567;28;20478;-73
2021/06/27 13:38:02;;;;;;;0.00;0.00;;;;;;;;;;4995310;28;20366;-72
2021/06/27 13:40:27;;;;;;;0.00;0.00;;;;;;;;;;5003004;28;20407;-73
2021/06/27 13:42:53;;;;;;;0.00;0.00;;;;;;;;;;5011639;28;20073;-73
2021/06/27 13:45:21;;;;;;;0.00;0.00;;;;;;;;;;5012863;28;20265;-73
2021/06/27 13:47:47;;;;;;;0.00;0.00;;;;;;;;;;4996270;28;20033;-74
2021/06/27 13:50:13;;;;;;;0.00;0.00;;;;;;;;;;4995479;28;20018;-73
2021/06/27 13:52:39;;;;;;;0.00;0.00;;;;;;;;;;4995892;28;20033;-73
2021/06/27 13:55:04;;;;;;;0.00;0.00;;;;;;;;;;4995791;28;20014;-73
2021/06/27 13:57:29;;;;;;;0.00;0.00;;;;;;;;;;4994960;28;20030;-73
2021/06/27 13:59:54;;;;;;;0.00;0.00;;;;;;;;;;4995300;28;20109;-72
2021/06/27 14:02:19;;;;;;;0.00;0.00;;;;;;;;;;4994109;28;20495;-73
2021/06/27 14:04:45;;;;;;;0.00;0.00;;;;;;;;;;4995305;28;20034;-72
2021/06/27 14:07:10;;;;;;;0.00;0.00;;;;;;;;;;4995526;28;20552;-72
2021/06/27 14:09:35;;;;;;;0.00;0.00;;;;;;;;;;5003523;28;20053;-72
2021/06/27 14:12:00;;;;;;;0.00;0.00;;;;;;;;;;5002450;28;20096;-73
2021/06/27 14:14:25;;;;;;;0.00;0.00;;;;;;;;;;4995215;28;20537;-73
2021/06/27 14:16:51;;;;;;;0.00;0.00;;;;;;;;;;5012464;28;20057;-73
2021/06/27 14:19:16;;;;;;;0.00;0.00;;;;;;;;;;5012740;28;20277;-73
2021/06/27 14:21:45;;;;;;;0.00;0.00;;;;;;;;;;4995146;28;20486;-73
2021/06/27 14:24:10;;;;;;;0.00;0.00;;;;;;;;;;4995783;28;20520;-72
2021/06/27 14:26:35;;;;;;;0.00;0.00;;;;;;;;;;4995270;28;20092;-72
2021/06/27 14:29:00;;;;;;;0.00;0.00;;;;;;;;;;4983720;28;20305;-73
2021/06/27 14:31:26;;;;;;;0.00;0.00;;;;;;;;;;4994879;28;20022;-73
2021/06/27 14:33:52;;;;;;;0.00;0.00;;;;;;;;;;5002635;28;20348;-73
2021/06/27 14:36:17;;;;;;;0.00;0.00;;;;;;;;;;5000480;28;20429;-74
2021/06/27 14:38:42;;;;;;;0.00;0.00;;;;;;;;;;5010941;28;20018;-74
2021/06/27 14:41:08;;;;;;;0.00;0.00;;;;;;;;;;4994582;28;20280;-73
2021/06/27 14:43:34;;;;;;;0.00;0.00;;;;;;;;;;4994901;28;20022;-74